sensor_id;sensor_type;location;lat;lon;timestamp;P1;durP1;ratioP1;P2;durP2;ratioP2
68310;SDS011;55157;51.036;17.058;2023-10-09T00:01:46;8.73;;;5.20;;
68310;SDS011;55157;51.036;17.058;2023-10-09T00:04:11;15.27;;;6.13;;
68310;SDS011;55157;51.036;17.058;2023-10-09T00:06:37;9.70;;;5.30;;
68310;SDS011;55157;51.036;17.058;2023-10-09T00:09:02;9.32;;;5.20;;
68310;SDS011;55157;51.036;17.058;2023-10-09T00:11:27;9.70;;;5.38;;
68310;SDS011;55157;51.036;17.058;2023-10-09T00:13:53;9.27;;;5.65;;
68310;SDS011;55157;51.036;17.058;2023-10-09T00:16:18;8.95;;;5.15;;
68310;SDS011;55157;51.036;17.058;2023-10-09T00:18:45;10.18;;;5.03;;
68310;SDS011;55157;51.036;17.058;2023-10-09T00:21:13;8.98;;;4.93;;
68310;SDS011;55157;51.036;17.058;2023-10-09T00:23:39;8.00;;;5.28;;
68310;SDS011;55157;51.036;17.058;2023-10-09T00:26:04;10.93;;;5.65;;
68310;SDS011;55157;51.036;17.058;2023-10-09T00:28:29;10.50;;;5.00;;
68310;SDS011;55157;51.036;17.058;2023-10-09T00:30:54;9.05;;;4.65;;
68310;SDS011;55157;51.036;17.058;2023-10-09T00:33:20;12.65;;;5.47;;
68310;SDS011;55157;51.036;17.058;2023-10-09T00:35:46;9.35;;;4.70;;
68310;SDS011;55157;51.036;17.058;2023-10-09T00:38:12;7.13;;;4.15;;
68310;SDS011;55157;51.036;17.058;2023-10-09T00:40:37;9.70;;;4.93;;
68310;SDS011;55157;51.036;17.058;2023-10-09T00:43:03;8.38;;;4.95;;
68310;SDS011;55157;51.036;17.058;2023-10-09T00:45:28;9.50;;;4.30;;
68310;SDS011;55157;51.036;17.058;2023-10-09T00:47:53;9.98;;;4.70;;
68310;SDS011;55157;51.036;17.058;2023-10-09T00:50:19;9.13;;;4.43;;
68310;SDS011;55157;51.036;17.058;2023-10-09T00:52:46;6.15;;;4.43;;
68310;SDS011;55157;51.036;17.058;2023-10-09T00:55:12;8.35;;;4.72;;
68310;SDS011;55157;51.036;17.058;2023-10-09T00:57:38;7.75;;;3.78;;
68310;SDS011;55157;51.036;17.058;2023-10-09T01:00:03;6.70;;;3.78;;
68310;SDS011;55157;51.036;17.058;2023-10-09T01:02:29;8.27;;;4.50;;
68310;SDS011;55157;51.036;17.058;2023-10-09T01:04:54;9.80;;;4.00;;
68310;SDS011;55157;51.036;17.058;2023-10-09T01:07:19;10.35;;;4.68;;
68310;SDS011;55157;51.036;17.058;2023-10-09T01:09:46;12.50;;;4.93;;
68310;SDS011;55157;51.036;17.058;2023-10-09T01:12:11;6.90;;;4.10;;
68310;SDS011;55157;51.036;17.058;2023-10-09T01:14:36;7.65;;;4.40;;
68310;SDS011;55157;51.036;17.058;2023-10-09T01:17:02;9.45;;;5.38;;
68310;SDS011;55157;51.036;17.058;2023-10-09T01:19:27;5.97;;;3.67;;
68310;SDS011;55157;51.036;17.058;2023-10-09T01:21:52;8.65;;;4.18;;
68310;SDS011;55157;51.036;17.058;2023-10-09T01:24:19;10.98;;;4.88;;
68310;SDS011;55157;51.036;17.058;2023-10-09T01:26:45;10.10;;;3.97;;
68310;SDS011;55157;51.036;17.058;2023-10-09T01:29:11;8.23;;;4.70;;
68310;SDS011;55157;51.036;17.058;2023-10-09T01:31:36;8.10;;;4.72;;
68310;SDS011;55157;51.036;17.058;2023-10-09T01:34:02;22.67;;;4.90;;
68310;SDS011;55157;51.036;17.058;2023-10-09T01:36:27;9.13;;;4.88;;
68310;SDS011;55157;51.036;17.058;2023-10-09T01:38:52;8.25;;;4.85;;
68310;SDS011;55157;51.036;17.058;2023-10-09T01:41:19;8.88;;;4.63;;
68310;SDS011;55157;51.036;17.058;2023-10-09T01:43:44;10.93;;;4.65;;
68310;SDS011;55157;51.036;17.058;2023-10-09T01:46:09;14.68;;;5.07;;
68310;SDS011;55157;51.036;17.058;2023-10-09T01:48:34;12.02;;;4.55;;
68310;SDS011;55157;51.036;17.058;2023-10-09T01:51:00;7.35;;;4.60;;
68310;SDS011;55157;51.036;17.058;2023-10-09T01:53:25;7.13;;;4.53;;
68310;SDS011;55157;51.036;17.058;2023-10-09T01:55:50;12.07;;;4.72;;
68310;SDS011;55157;51.036;17.058;2023-10-09T01:58:17;8.88;;;4.40;;
68310;SDS011;55157;51.036;17.058;2023-10-09T02:00:42;7.55;;;4.68;;
68310;SDS011;55157;51.036;17.058;2023-10-09T02:03:08;10.82;;;4.68;;
68310;SDS011;55157;51.036;17.058;2023-10-09T02:05:33;7.20;;;4.35;;
68310;SDS011;55157;51.036;17.058;2023-10-09T02:07:58;9.18;;;4.43;;
68310;SDS011;55157;51.036;17.058;2023-10-09T02:10:24;7.25;;;4.38;;
68310;SDS011;55157;51.036;17.058;2023-10-09T02:12:49;8.68;;;3.80;;
68310;SDS011;55157;51.036;17.058;2023-10-09T02:15:16;11.75;;;4.28;;
68310;SDS011;55157;51.036;17.058;2023-10-09T02:17:41;6.03;;;3.85;;
68310;SDS011;55157;51.036;17.058;2023-10-09T02:20:06;7.82;;;3.80;;
68310;SDS011;55157;51.036;17.058;2023-10-09T02:22:32;7.03;;;4.00;;
68310;SDS011;55157;51.036;17.058;2023-10-09T02:24:57;9.20;;;3.75;;
68310;SDS011;55157;51.036;17.058;2023-10-09T02:27:22;10.35;;;3.63;;
68310;SDS011;55157;51.036;17.058;2023-10-09T02:29:47;9.20;;;3.70;;
68310;SDS011;55157;51.036;17.058;2023-10-09T02:32:14;7.47;;;3.30;;
68310;SDS011;55157;51.036;17.058;2023-10-09T02:34:39;9.30;;;3.58;;
68310;SDS011;55157;51.036;17.058;2023-10-09T02:37:05;7.95;;;3.95;;
68310;SDS011;55157;51.036;17.058;2023-10-09T02:39:30;6.38;;;3.47;;
68310;SDS011;55157;51.036;17.058;2023-10-09T02:41:56;8.65;;;3.53;;
68310;SDS011;55157;51.036;17.058;2023-10-09T02:44:21;6.63;;;3.60;;
68310;SDS011;55157;51.036;17.058;2023-10-09T02:46:46;8.43;;;3.85;;
68310;SDS011;55157;51.036;17.058;2023-10-09T02:49:13;6.70;;;3.40;;
68310;SDS011;55157;51.036;17.058;2023-10-09T02:51:39;8.55;;;4.07;;
68310;SDS011;55157;51.036;17.058;2023-10-09T02:54:04;18.35;;;4.75;;
68310;SDS011;55157;51.036;17.058;2023-10-09T02:56:29;8.23;;;4.30;;
68310;SDS011;55157;51.036;17.058;2023-10-09T02:58:54;8.48;;;4.03;;
68310;SDS011;55157;51.036;17.058;2023-10-09T03:01:20;6.55;;;3.67;;
68310;SDS011;55157;51.036;17.058;2023-10-09T03:03:45;8.98;;;4.30;;
68310;SDS011;55157;51.036;17.058;2023-10-09T03:06:12;15.93;;;5.95;;
68310;SDS011;55157;51.036;17.058;2023-10-09T03:08:37;6.80;;;3.35;;
68310;SDS011;55157;51.036;17.058;2023-10-09T03:11:02;8.02;;;3.28;;
68310;SDS011;55157;51.036;17.058;2023-10-09T03:13:28;8.30;;;4.47;;
68310;SDS011;55157;51.036;17.058;2023-10-09T03:15:53;8.02;;;3.40;;
68310;SDS011;55157;51.036;17.058;2023-10-09T03:18:18;6.65;;;3.63;;
68310;SDS011;55157;51.036;17.058;2023-10-09T03:20:44;5.47;;;2.97;;
68310;SDS011;55157;51.036;17.058;2023-10-09T03:23:10;7.18;;;3.72;;
68310;SDS011;55157;51.036;17.058;2023-10-09T03:25:35;4.97;;;2.80;;
68310;SDS011;55157;51.036;17.058;2023-10-09T03:28:01;7.63;;;3.38;;
68310;SDS011;55157;51.036;17.058;2023-10-09T03:30:26;7.82;;;4.25;;
68310;SDS011;55157;51.036;17.058;2023-10-09T03:32:51;5.93;;;3.55;;
68310;SDS011;55157;51.036;17.058;2023-10-09T03:35:17;9.07;;;2.92;;
68310;SDS011;55157;51.036;17.058;2023-10-09T03:37:42;6.53;;;3.30;;
68310;SDS011;55157;51.036;17.058;2023-10-09T03:40:10;5.18;;;2.85;;
68310;SDS011;55157;51.036;17.058;2023-10-09T03:42:36;6.55;;;4.00;;
68310;SDS011;55157;51.036;17.058;2023-10-09T03:45:01;6.18;;;3.80;;
68310;SDS011;55157;51.036;17.058;2023-10-09T03:47:26;11.02;;;3.72;;
68310;SDS011;55157;51.036;17.058;2023-10-09T03:49:51;9.68;;;3.50;;
68310;SDS011;55157;51.036;17.058;2023-10-09T03:52:17;6.78;;;2.72;;
68310;SDS011;55157;51.036;17.058;2023-10-09T03:54:42;7.45;;;3.67;;
68310;SDS011;55157;51.036;17.058;2023-10-09T03:57:09;4.75;;;3.10;;
68310;SDS011;55157;51.036;17.058;2023-10-09T03:59:34;8.75;;;3.10;;
68310;SDS011;55157;51.036;17.058;2023-10-09T04:01:59;8.35;;;3.10;;
68310;SDS011;55157;51.036;17.058;2023-10-09T04:04:24;7.40;;;3.38;;
68310;SDS011;55157;51.036;17.058;2023-10-09T04:06:50;5.53;;;3.25;;
68310;SDS011;55157;51.036;17.058;2023-10-09T04:09:15;6.72;;;3.10;;
68310;SDS011;55157;51.036;17.058;2023-10-09T04:11:40;7.78;;;2.80;;
68310;SDS011;55157;51.036;17.058;2023-10-09T04:14:07;4.65;;;2.42;;
68310;SDS011;55157;51.036;17.058;2023-10-09T04:16:32;6.18;;;3.13;;
68310;SDS011;55157;51.036;17.058;2023-10-09T04:18:57;4.72;;;2.65;;
68310;SDS011;55157;51.036;17.058;2023-10-09T04:21:23;5.60;;;2.70;;
68310;SDS011;55157;51.036;17.058;2023-10-09T04:23:48;6.55;;;3.13;;
68310;SDS011;55157;51.036;17.058;2023-10-09T04:26:13;5.93;;;2.67;;
68310;SDS011;55157;51.036;17.058;2023-10-09T04:28:38;8.57;;;2.78;;
68310;SDS011;55157;51.036;17.058;2023-10-09T04:31:05;4.10;;;2.10;;
68310;SDS011;55157;51.036;17.058;2023-10-09T04:33:30;6.88;;;2.00;;
68310;SDS011;55157;51.036;17.058;2023-10-09T04:36:00;7.80;;;2.80;;
68310;SDS011;55157;51.036;17.058;2023-10-09T04:38:26;4.80;;;2.20;;
68310;SDS011;55157;51.036;17.058;2023-10-09T04:40:51;5.50;;;2.50;;
68310;SDS011;55157;51.036;17.058;2023-10-09T04:43:16;3.83;;;2.15;;
68310;SDS011;55157;51.036;17.058;2023-10-09T04:45:42;10.18;;;2.25;;
68310;SDS011;55157;51.036;17.058;2023-10-09T04:48:08;4.93;;;2.17;;
68310;SDS011;55157;51.036;17.058;2023-10-09T04:50:33;5.47;;;2.33;;
68310;SDS011;55157;51.036;17.058;2023-10-09T04:52:59;4.93;;;2.95;;
68310;SDS011;55157;51.036;17.058;2023-10-09T04:55:24;6.68;;;4.07;;
68310;SDS011;55157;51.036;17.058;2023-10-09T04:57:49;7.00;;;5.05;;
68310;SDS011;55157;51.036;17.058;2023-10-09T05:00:15;6.95;;;4.57;;
68310;SDS011;55157;51.036;17.058;2023-10-09T05:02:40;8.38;;;5.05;;
68310;SDS011;55157;51.036;17.058;2023-10-09T05:05:07;5.07;;;3.75;;
68310;SDS011;55157;51.036;17.058;2023-10-09T05:07:33;6.82;;;3.97;;
68310;SDS011;55157;51.036;17.058;2023-10-09T05:09:58;6.80;;;3.30;;
68310;SDS011;55157;51.036;17.058;2023-10-09T05:12:23;5.38;;;2.45;;
68310;SDS011;55157;51.036;17.058;2023-10-09T05:14:48;6.97;;;3.08;;
68310;SDS011;55157;51.036;17.058;2023-10-09T05:17:13;3.47;;;2.25;;
68310;SDS011;55157;51.036;17.058;2023-10-09T05:19:39;7.10;;;2.38;;
68310;SDS011;55157;51.036;17.058;2023-10-09T05:22:05;4.20;;;2.00;;
68310;SDS011;55157;51.036;17.058;2023-10-09T05:24:30;6.30;;;2.58;;
68310;SDS011;55157;51.036;17.058;2023-10-09T05:26:56;4.88;;;2.10;;
68310;SDS011;55157;51.036;17.058;2023-10-09T05:29:21;6.82;;;2.38;;
68310;SDS011;55157;51.036;17.058;2023-10-09T05:31:47;4.57;;;2.05;;
68310;SDS011;55157;51.036;17.058;2023-10-09T05:34:12;5.32;;;2.38;;
68310;SDS011;55157;51.036;17.058;2023-10-09T05:36:37;4.97;;;2.00;;
68310;SDS011;55157;51.036;17.058;2023-10-09T05:39:04;7.78;;;2.25;;
68310;SDS011;55157;51.036;17.058;2023-10-09T05:41:29;3.92;;;1.80;;
68310;SDS011;55157;51.036;17.058;2023-10-09T05:43:55;3.90;;;1.95;;
68310;SDS011;55157;51.036;17.058;2023-10-09T05:46:20;7.28;;;2.15;;
68310;SDS011;55157;51.036;17.058;2023-10-09T05:48:45;4.57;;;2.28;;
68310;SDS011;55157;51.036;17.058;2023-10-09T05:51:10;5.95;;;2.50;;
68310;SDS011;55157;51.036;17.058;2023-10-09T05:53:35;6.22;;;2.85;;
68310;SDS011;55157;51.036;17.058;2023-10-09T05:56:02;4.05;;;2.00;;
68310;SDS011;55157;51.036;17.058;2023-10-09T05:58:27;5.65;;;2.13;;
68310;SDS011;55157;51.036;17.058;2023-10-09T06:00:53;8.02;;;3.25;;
68310;SDS011;55157;51.036;17.058;2023-10-09T06:03:18;10.27;;;5.85;;
68310;SDS011;55157;51.036;17.058;2023-10-09T06:05:43;8.82;;;4.43;;
68310;SDS011;55157;51.036;17.058;2023-10-09T06:08:08;5.40;;;3.20;;
68310;SDS011;55157;51.036;17.058;2023-10-09T06:10:34;7.20;;;3.47;;
68310;SDS011;55157;51.036;17.058;2023-10-09T06:13:00;8.55;;;3.95;;
68310;SDS011;55157;51.036;17.058;2023-10-09T06:15:26;11.55;;;3.97;;
68310;SDS011;55157;51.036;17.058;2023-10-09T06:17:51;10.70;;;4.30;;
68310;SDS011;55157;51.036;17.058;2023-10-09T06:20:16;11.38;;;4.70;;
68310;SDS011;55157;51.036;17.058;2023-10-09T06:22:41;12.38;;;5.68;;
68310;SDS011;55157;51.036;17.058;2023-10-09T06:25:07;5.82;;;3.50;;
68310;SDS011;55157;51.036;17.058;2023-10-09T06:27:32;4.88;;;2.97;;
68310;SDS011;55157;51.036;17.058;2023-10-09T06:29:59;4.85;;;2.90;;
68310;SDS011;55157;51.036;17.058;2023-10-09T06:32:24;4.93;;;3.05;;
68310;SDS011;55157;51.036;17.058;2023-10-09T06:34:49;8.18;;;3.25;;
68310;SDS011;55157;51.036;17.058;2023-10-09T06:37:15;5.82;;;2.40;;
68310;SDS011;55157;51.036;17.058;2023-10-09T06:39:40;4.50;;;2.80;;
68310;SDS011;55157;51.036;17.058;2023-10-09T06:42:05;5.38;;;2.60;;
68310;SDS011;55157;51.036;17.058;2023-10-09T06:44:31;4.00;;;2.90;;
68310;SDS011;55157;51.036;17.058;2023-10-09T06:46:57;3.92;;;2.60;;
68310;SDS011;55157;51.036;17.058;2023-10-09T06:49:22;5.63;;;2.63;;
68310;SDS011;55157;51.036;17.058;2023-10-09T06:51:48;7.75;;;3.05;;
68310;SDS011;55157;51.036;17.058;2023-10-09T06:54:13;7.70;;;3.97;;
68310;SDS011;55157;51.036;17.058;2023-10-09T06:56:38;8.30;;;3.88;;
68310;SDS011;55157;51.036;17.058;2023-10-09T06:59:04;10.45;;;4.00;;
68310;SDS011;55157;51.036;17.058;2023-10-09T07:01:29;9.52;;;3.70;;
68310;SDS011;55157;51.036;17.058;2023-10-09T07:03:56;9.65;;;3.72;;
68310;SDS011;55157;51.036;17.058;2023-10-09T07:06:21;5.53;;;3.42;;
68310;SDS011;55157;51.036;17.058;2023-10-09T07:08:47;5.60;;;2.78;;
68310;SDS011;55157;51.036;17.058;2023-10-09T07:11:12;5.18;;;2.75;;
68310;SDS011;55157;51.036;17.058;2023-10-09T07:13:37;3.47;;;2.30;;
68310;SDS011;55157;51.036;17.058;2023-10-09T07:16:02;6.80;;;2.67;;
68310;SDS011;55157;51.036;17.058;2023-10-09T07:18:28;4.28;;;2.33;;
68310;SDS011;55157;51.036;17.058;2023-10-09T07:20:54;4.80;;;2.33;;
68310;SDS011;55157;51.036;17.058;2023-10-09T07:23:20;3.75;;;2.20;;
68310;SDS011;55157;51.036;17.058;2023-10-09T07:25:45;8.07;;;3.03;;
68310;SDS011;55157;51.036;17.058;2023-10-09T07:28:10;5.15;;;2.60;;
68310;SDS011;55157;51.036;17.058;2023-10-09T07:30:36;4.85;;;2.90;;
68310;SDS011;55157;51.036;17.058;2023-10-09T07:33:02;7.60;;;3.20;;
68310;SDS011;55157;51.036;17.058;2023-10-09T07:35:27;8.68;;;3.40;;
68310;SDS011;55157;51.036;17.058;2023-10-09T07:37:57;8.57;;;3.97;;
68310;SDS011;55157;51.036;17.058;2023-10-09T07:40:22;6.20;;;3.20;;
68310;SDS011;55157;51.036;17.058;2023-10-09T07:42:47;7.93;;;4.30;;
68310;SDS011;55157;51.036;17.058;2023-10-09T07:45:12;12.50;;;4.68;;
68310;SDS011;55157;51.036;17.058;2023-10-09T07:47:38;8.82;;;4.07;;
68310;SDS011;55157;51.036;17.058;2023-10-09T07:50:04;7.68;;;4.20;;
68310;SDS011;55157;51.036;17.058;2023-10-09T07:52:29;8.52;;;4.38;;
68310;SDS011;55157;51.036;17.058;2023-10-09T07:54:56;6.07;;;3.95;;
68310;SDS011;55157;51.036;17.058;2023-10-09T07:57:21;4.65;;;2.55;;
68310;SDS011;55157;51.036;17.058;2023-10-09T07:59:46;12.07;;;5.70;;
68310;SDS011;55157;51.036;17.058;2023-10-09T08:02:11;10.52;;;4.85;;
68310;SDS011;55157;51.036;17.058;2023-10-09T08:04:37;20.58;;;8.30;;
68310;SDS011;55157;51.036;17.058;2023-10-09T08:07:02;8.55;;;5.65;;
68310;SDS011;55157;51.036;17.058;2023-10-09T08:09:27;9.98;;;5.63;;
68310;SDS011;55157;51.036;17.058;2023-10-09T08:11:54;7.15;;;3.00;;
68310;SDS011;55157;51.036;17.058;2023-10-09T08:14:19;5.47;;;3.22;;
68310;SDS011;55157;51.036;17.058;2023-10-09T08:16:44;6.18;;;2.55;;
68310;SDS011;55157;51.036;17.058;2023-10-09T08:19:10;7.00;;;2.88;;
68310;SDS011;55157;51.036;17.058;2023-10-09T08:21:35;3.75;;;2.30;;
68310;SDS011;55157;51.036;17.058;2023-10-09T08:24:00;8.02;;;2.92;;
68310;SDS011;55157;51.036;17.058;2023-10-09T08:26:25;4.30;;;2.78;;
68310;SDS011;55157;51.036;17.058;2023-10-09T08:28:52;5.78;;;2.65;;
68310;SDS011;55157;51.036;17.058;2023-10-09T08:31:18;6.10;;;3.00;;
68310;SDS011;55157;51.036;17.058;2023-10-09T08:33:44;5.18;;;2.80;;
68310;SDS011;55157;51.036;17.058;2023-10-09T08:36:09;5.15;;;2.70;;
68310;SDS011;55157;51.036;17.058;2023-10-09T08:38:35;3.55;;;2.15;;
68310;SDS011;55157;51.036;17.058;2023-10-09T08:41:06;4.97;;;2.60;;
68310;SDS011;55157;51.036;17.058;2023-10-09T08:43:32;6.05;;;2.47;;
68310;SDS011;55157;51.036;17.058;2023-10-09T08:45:59;4.97;;;3.10;;
68310;SDS011;55157;51.036;17.058;2023-10-09T08:48:25;4.72;;;2.83;;
68310;SDS011;55157;51.036;17.058;2023-10-09T08:50:50;7.32;;;3.45;;
68310;SDS011;55157;51.036;17.058;2023-10-09T08:53:16;6.97;;;3.85;;
68310;SDS011;55157;51.036;17.058;2023-10-09T08:55:42;4.22;;;2.70;;
68310;SDS011;55157;51.036;17.058;2023-10-09T08:58:07;6.85;;;2.72;;
68310;SDS011;55157;51.036;17.058;2023-10-09T09:00:32;4.35;;;2.70;;
68310;SDS011;55157;51.036;17.058;2023-10-09T09:02:59;5.22;;;2.25;;
68310;SDS011;55157;51.036;17.058;2023-10-09T09:05:24;5.13;;;2.20;;
68310;SDS011;55157;51.036;17.058;2023-10-09T09:07:49;3.47;;;2.08;;
68310;SDS011;55157;51.036;17.058;2023-10-09T09:10:15;3.80;;;2.40;;
68310;SDS011;55157;51.036;17.058;2023-10-09T09:12:40;6.00;;;2.40;;
68310;SDS011;55157;51.036;17.058;2023-10-09T09:15:09;5.47;;;2.83;;
68310;SDS011;55157;51.036;17.058;2023-10-09T09:17:38;4.18;;;2.00;;
68310;SDS011;55157;51.036;17.058;2023-10-09T09:20:17;6.30;;;3.30;;
68310;SDS011;55157;51.036;17.058;2023-10-09T09:22:51;4.43;;;3.25;;
68310;SDS011;55157;51.036;17.058;2023-10-09T09:25:16;4.35;;;2.47;;
68310;SDS011;55157;51.036;17.058;2023-10-09T09:27:44;6.68;;;2.25;;
68310;SDS011;55157;51.036;17.058;2023-10-09T09:30:13;4.45;;;2.10;;
68310;SDS011;55157;51.036;17.058;2023-10-09T09:32:46;4.05;;;2.58;;
68310;SDS011;55157;51.036;17.058;2023-10-09T09:35:12;4.32;;;2.20;;
68310;SDS011;55157;51.036;17.058;2023-10-09T09:37:38;2.65;;;1.85;;
68310;SDS011;55157;51.036;17.058;2023-10-09T09:40:04;4.22;;;2.03;;
68310;SDS011;55157;51.036;17.058;2023-10-09T09:42:30;5.68;;;2.75;;
68310;SDS011;55157;51.036;17.058;2023-10-09T09:44:57;6.40;;;2.38;;
68310;SDS011;55157;51.036;17.058;2023-10-09T09:47:23;7.05;;;1.88;;
68310;SDS011;55157;51.036;17.058;2023-10-09T09:49:48;4.00;;;2.58;;
68310;SDS011;55157;51.036;17.058;2023-10-09T09:52:14;5.72;;;2.20;;
68310;SDS011;55157;51.036;17.058;2023-10-09T09:54:41;3.33;;;2.10;;
68310;SDS011;55157;51.036;17.058;2023-10-09T09:57:07;5.47;;;2.65;;
68310;SDS011;55157;51.036;17.058;2023-10-09T09:59:32;3.30;;;1.98;;
68310;SDS011;55157;51.036;17.058;2023-10-09T10:01:58;4.28;;;2.47;;
68310;SDS011;55157;51.036;17.058;2023-10-09T10:04:24;4.50;;;2.33;;
68310;SDS011;55157;51.036;17.058;2023-10-09T10:06:50;5.85;;;2.47;;
68310;SDS011;55157;51.036;17.058;2023-10-09T10:11:58;4.03;;;2.17;;
68310;SDS011;55157;51.036;17.058;2023-10-09T10:14:23;3.38;;;2.25;;
68310;SDS011;55157;51.036;17.058;2023-10-09T10:17:01;5.43;;;2.60;;
68310;SDS011;55157;51.036;17.058;2023-10-09T10:19:28;5.35;;;2.95;;
68310;SDS011;55157;51.036;17.058;2023-10-09T10:22:23;4.93;;;2.72;;
68310;SDS011;55157;51.036;17.058;2023-10-09T10:24:48;4.68;;;2.65;;
68310;SDS011;55157;51.036;17.058;2023-10-09T10:27:20;6.88;;;3.35;;
68310;SDS011;55157;51.036;17.058;2023-10-09T10:29:45;3.20;;;2.13;;
68310;SDS011;55157;51.036;17.058;2023-10-09T10:32:11;4.82;;;3.13;;
68310;SDS011;55157;51.036;17.058;2023-10-09T10:34:51;3.63;;;2.33;;
68310;SDS011;55157;51.036;17.058;2023-10-09T10:37:17;6.43;;;2.83;;
68310;SDS011;55157;51.036;17.058;2023-10-09T10:39:49;5.45;;;2.55;;
68310;SDS011;55157;51.036;17.058;2023-10-09T10:42:15;5.75;;;2.50;;
68310;SDS011;55157;51.036;17.058;2023-10-09T10:44:41;3.97;;;2.25;;
68310;SDS011;55157;51.036;17.058;2023-10-09T10:47:07;5.22;;;2.47;;
68310;SDS011;55157;51.036;17.058;2023-10-09T10:49:32;7.68;;;2.53;;
68310;SDS011;55157;51.036;17.058;2023-10-09T10:51:59;3.95;;;2.42;;
68310;SDS011;55157;51.036;17.058;2023-10-09T10:54:24;4.60;;;1.98;;
68310;SDS011;55157;51.036;17.058;2023-10-09T10:56:50;4.05;;;1.98;;
68310;SDS011;55157;51.036;17.058;2023-10-09T10:59:15;3.70;;;1.75;;
68310;SDS011;55157;51.036;17.058;2023-10-09T11:01:42;4.25;;;2.60;;
68310;SDS011;55157;51.036;17.058;2023-10-09T11:04:10;4.40;;;1.92;;
68310;SDS011;55157;51.036;17.058;2023-10-09T11:06:35;5.80;;;2.47;;
68310;SDS011;55157;51.036;17.058;2023-10-09T11:09:01;2.83;;;2.05;;
68310;SDS011;55157;51.036;17.058;2023-10-09T11:11:26;3.85;;;2.55;;
68310;SDS011;55157;51.036;17.058;2023-10-09T11:13:51;5.43;;;2.55;;
68310;SDS011;55157;51.036;17.058;2023-10-09T11:16:17;4.40;;;2.50;;
68310;SDS011;55157;51.036;17.058;2023-10-09T11:18:44;4.05;;;2.50;;
68310;SDS011;55157;51.036;17.058;2023-10-09T11:21:09;5.28;;;2.30;;
68310;SDS011;55157;51.036;17.058;2023-10-09T11:23:34;2.22;;;1.70;;
68310;SDS011;55157;51.036;17.058;2023-10-09T11:26:00;3.42;;;2.00;;
68310;SDS011;55157;51.036;17.058;2023-10-09T11:28:25;2.78;;;1.83;;
68310;SDS011;55157;51.036;17.058;2023-10-09T11:30:51;5.63;;;2.33;;
68310;SDS011;55157;51.036;17.058;2023-10-09T11:33:16;4.65;;;1.63;;
68310;SDS011;55157;51.036;17.058;2023-10-09T11:35:52;4.15;;;1.92;;
68310;SDS011;55157;51.036;17.058;2023-10-09T11:38:19;4.97;;;2.13;;
68310;SDS011;55157;51.036;17.058;2023-10-09T11:40:44;4.03;;;2.00;;
68310;SDS011;55157;51.036;17.058;2023-10-09T11:43:09;6.38;;;3.00;;
68310;SDS011;55157;51.036;17.058;2023-10-09T11:45:35;8.48;;;2.85;;
68310;SDS011;55157;51.036;17.058;2023-10-09T11:48:15;4.75;;;2.30;;
68310;SDS011;55157;51.036;17.058;2023-10-09T11:50:42;3.60;;;2.00;;
68310;SDS011;55157;51.036;17.058;2023-10-09T11:53:08;3.47;;;1.52;;
68310;SDS011;55157;51.036;17.058;2023-10-09T11:55:34;2.85;;;2.13;;
68310;SDS011;55157;51.036;17.058;2023-10-09T11:57:59;6.45;;;2.05;;
68310;SDS011;55157;51.036;17.058;2023-10-09T12:00:25;3.60;;;2.03;;
68310;SDS011;55157;51.036;17.058;2023-10-09T12:02:50;2.55;;;1.80;;
68310;SDS011;55157;51.036;17.058;2023-10-09T12:05:15;3.40;;;1.83;;
68310;SDS011;55157;51.036;17.058;2023-10-09T12:07:42;3.53;;;2.00;;
68310;SDS011;55157;51.036;17.058;2023-10-09T12:10:07;3.88;;;1.70;;
68310;SDS011;55157;51.036;17.058;2023-10-09T12:12:32;3.10;;;1.90;;
68310;SDS011;55157;51.036;17.058;2023-10-09T12:14:57;6.10;;;1.95;;
68310;SDS011;55157;51.036;17.058;2023-10-09T12:17:23;3.90;;;1.80;;
68310;SDS011;55157;51.036;17.058;2023-10-09T12:19:48;4.00;;;1.95;;
68310;SDS011;55157;51.036;17.058;2023-10-09T12:22:13;3.22;;;1.95;;
68310;SDS011;55157;51.036;17.058;2023-10-09T12:24:40;2.35;;;1.73;;
68310;SDS011;55157;51.036;17.058;2023-10-09T12:27:05;3.30;;;1.85;;
68310;SDS011;55157;51.036;17.058;2023-10-09T12:29:30;2.45;;;1.80;;
68310;SDS011;55157;51.036;17.058;2023-10-09T12:31:55;2.55;;;2.00;;
68310;SDS011;55157;51.036;17.058;2023-10-09T12:34:21;5.50;;;2.10;;
68310;SDS011;55157;51.036;17.058;2023-10-09T12:36:46;2.45;;;1.83;;
68310;SDS011;55157;51.036;17.058;2023-10-09T12:39:11;3.28;;;2.10;;
68310;SDS011;55157;51.036;17.058;2023-10-09T12:41:38;7.45;;;3.30;;
68310;SDS011;55157;51.036;17.058;2023-10-09T12:44:03;4.28;;;2.55;;
68310;SDS011;55157;51.036;17.058;2023-10-09T12:46:28;13.88;;;3.35;;
68310;SDS011;55157;51.036;17.058;2023-10-09T12:48:54;4.97;;;2.50;;
68310;SDS011;55157;51.036;17.058;2023-10-09T12:51:19;5.65;;;2.70;;
68310;SDS011;55157;51.036;17.058;2023-10-09T12:53:45;3.30;;;2.30;;
68310;SDS011;55157;51.036;17.058;2023-10-09T12:56:11;3.97;;;2.35;;
68310;SDS011;55157;51.036;17.058;2023-10-09T12:58:37;6.65;;;2.55;;
68310;SDS011;55157;51.036;17.058;2023-10-09T13:01:03;8.15;;;3.17;;
68310;SDS011;55157;51.036;17.058;2023-10-09T13:03:28;5.68;;;2.70;;
68310;SDS011;55157;51.036;17.058;2023-10-09T13:05:54;5.90;;;3.28;;
68310;SDS011;55157;51.036;17.058;2023-10-09T13:08:19;5.13;;;3.13;;
68310;SDS011;55157;51.036;17.058;2023-10-09T13:10:44;5.82;;;2.80;;
68310;SDS011;55157;51.036;17.058;2023-10-09T13:13:10;5.45;;;3.17;;
68310;SDS011;55157;51.036;17.058;2023-10-09T13:15:36;5.63;;;2.78;;
68310;SDS011;55157;51.036;17.058;2023-10-09T13:18:02;4.15;;;2.42;;
68310;SDS011;55157;51.036;17.058;2023-10-09T13:20:27;5.72;;;2.80;;
68310;SDS011;55157;51.036;17.058;2023-10-09T13:22:52;4.57;;;2.72;;
68310;SDS011;55157;51.036;17.058;2023-10-09T13:25:17;7.85;;;2.45;;
68310;SDS011;55157;51.036;17.058;2023-10-09T13:27:43;4.28;;;2.67;;
68310;SDS011;55157;51.036;17.058;2023-10-09T13:30:08;5.07;;;2.67;;
68310;SDS011;55157;51.036;17.058;2023-10-09T13:32:35;4.53;;;3.05;;
68310;SDS011;55157;51.036;17.058;2023-10-09T13:35:00;5.70;;;2.88;;
68310;SDS011;55157;51.036;17.058;2023-10-09T13:37:26;6.80;;;3.08;;
68310;SDS011;55157;51.036;17.058;2023-10-09T13:39:51;4.63;;;2.70;;
68310;SDS011;55157;51.036;17.058;2023-10-09T13:42:16;6.60;;;2.78;;
68310;SDS011;55157;51.036;17.058;2023-10-09T13:44:41;4.05;;;2.75;;
68310;SDS011;55157;51.036;17.058;2023-10-09T13:47:06;6.35;;;3.03;;
68310;SDS011;55157;51.036;17.058;2023-10-09T13:49:33;3.13;;;2.20;;
68310;SDS011;55157;51.036;17.058;2023-10-09T13:51:59;4.78;;;2.47;;
68310;SDS011;55157;51.036;17.058;2023-10-09T13:54:25;4.68;;;2.80;;
68310;SDS011;55157;51.036;17.058;2023-10-09T13:56:51;5.43;;;2.83;;
68310;SDS011;55157;51.036;17.058;2023-10-09T13:59:16;5.95;;;2.90;;
68310;SDS011;55157;51.036;17.058;2023-10-09T14:01:41;5.45;;;3.63;;
68310;SDS011;55157;51.036;17.058;2023-10-09T14:04:06;7.15;;;3.70;;
68310;SDS011;55157;51.036;17.058;2023-10-09T14:06:33;3.55;;;2.42;;
68310;SDS011;55157;51.036;17.058;2023-10-09T14:08:58;4.57;;;3.00;;
68310;SDS011;55157;51.036;17.058;2023-10-09T14:11:24;4.93;;;2.80;;
68310;SDS011;55157;51.036;17.058;2023-10-09T14:13:49;5.47;;;2.58;;
68310;SDS011;55157;51.036;17.058;2023-10-09T14:16:14;5.35;;;2.75;;
68310;SDS011;55157;51.036;17.058;2023-10-09T14:18:40;5.35;;;2.80;;
68310;SDS011;55157;51.036;17.058;2023-10-09T14:21:05;4.93;;;3.03;;
68310;SDS011;55157;51.036;17.058;2023-10-09T14:23:32;5.30;;;3.05;;
68310;SDS011;55157;51.036;17.058;2023-10-09T14:25:57;4.80;;;2.42;;
68310;SDS011;55157;51.036;17.058;2023-10-09T14:28:22;3.85;;;2.50;;